createdAt,value
2018-05-04T00:00:18.171Z,96.40
2018-05-04T00:02:47.274Z,96.50
2018-05-04T00:05:15.999Z,96.40
2018-05-04T00:07:44.459Z,96.40
2018-05-04T00:10:12.788Z,96.60
2018-05-04T00:12:41.109Z,96.60
2018-05-04T00:15:10.370Z,96.70
2018-05-04T00:17:38.815Z,96.80
2018-05-04T00:20:07.166Z,96.90
2018-05-04T00:22:35.737Z,96.80
2018-05-04T00:25:04.128Z,96.90
2018-05-04T00:27:32.526Z,97.10
2018-05-04T00:30:01.159Z,97.10
2018-05-04T00:32:29.538Z,97.20
2018-05-04T00:34:57.865Z,97.30
2018-05-04T00:37:26.296Z,97.60
2018-05-04T00:39:54.718Z,97.30
2018-05-04T00:42:23.067Z,97.40
2018-05-04T00:44:52.163Z,97.90
2018-05-04T00:47:20.529Z,97.60
2018-05-04T00:49:48.858Z,97.50
2018-05-04T00:52:17.214Z,97.70
2018-05-04T00:54:46.646Z,97.90
2018-05-04T00:57:15.308Z,97.90
2018-05-04T00:59:43.810Z,97.90
2018-05-04T01:02:12.220Z,98.10
2018-05-04T01:04:40.660Z,98.20
2018-05-04T01:07:09.059Z,98.20
2018-05-04T01:09:37.397Z,98.40
2018-05-04T01:12:06.523Z,98.70
2018-05-04T01:14:35.135Z,98.70
2018-05-04T01:17:03.503Z,98.80
2018-05-04T01:19:31.834Z,98.90
2018-05-04T01:22:00.957Z,98.70
2018-05-04T01:24:29.306Z,98.60
2018-05-04T01:26:58.439Z,99.50
2018-05-04T01:29:27.403Z,99.10
2018-05-04T01:31:55.955Z,99.40
2018-05-04T01:34:24.311Z,99.40
2018-05-04T01:36:52.680Z,99.40
2018-05-04T01:39:21.891Z,99.90
2018-05-04T01:41:50.242Z,99.90
2018-05-04T01:44:18.594Z,99.90
2018-05-04T01:46:47.845Z,99.90
2018-05-04T01:49:16.182Z,99.90
2018-05-04T01:51:44.530Z,99.90
2018-05-04T01:54:12.856Z,99.90
2018-05-04T01:56:41.198Z,99.90
2018-05-04T01:59:09.815Z,99.90
2018-05-04T02:01:38.133Z,99.90
2018-05-04T02:04:06.460Z,99.90
2018-05-04T02:06:34.805Z,99.90
2018-05-04T02:09:03.156Z,99.90
2018-05-04T02:14:06.260Z,99.90
2018-05-04T02:16:34.656Z,99.90
2018-05-04T02:19:03.192Z,99.90
2018-05-04T02:21:31.557Z,99.90
2018-05-04T02:24:00.659Z,99.90
2018-05-04T02:26:29.100Z,99.90
2018-05-04T02:28:57.442Z,99.90
2018-05-04T02:31:25.909Z,99.90
2018-05-04T02:33:55.122Z,99.90
2018-05-04T02:36:23.463Z,99.90
2018-05-04T02:38:52.704Z,99.90
2018-05-04T02:41:21.111Z,99.90
2018-05-04T02:43:49.464Z,99.90
2018-05-04T02:46:17.808Z,99.90
2018-05-04T02:48:46.145Z,99.90
2018-05-04T02:51:14.480Z,99.90
2018-05-04T02:53:42.875Z,99.90
2018-05-04T02:56:11.260Z,99.90
2018-05-04T02:58:39.622Z,99.90
2018-05-04T03:01:07.995Z,99.90
2018-05-04T03:03:37.085Z,99.90
2018-05-04T03:06:05.488Z,99.90
2018-05-04T03:08:33.821Z,99.90
2018-05-04T03:11:02.150Z,99.90
2018-05-04T03:13:30.468Z,99.90
2018-05-04T03:15:58.898Z,99.90
2018-05-04T03:18:27.224Z,99.90
2018-05-04T03:20:55.562Z,99.90
2018-05-04T03:23:24.012Z,99.90
2018-05-04T03:25:52.419Z,99.90
2018-05-04T03:28:20.870Z,99.90
2018-05-04T03:30:49.988Z,99.90
2018-05-04T03:33:19.078Z,99.90
2018-05-04T03:35:47.419Z,99.90
2018-05-04T03:38:15.767Z,99.90
2018-05-04T03:40:44.143Z,99.90
2018-05-04T03:43:13.188Z,99.90
2018-05-04T03:45:41.532Z,99.90
2018-05-04T03:48:09.856Z,99.90
2018-05-04T03:50:38.968Z,99.90
2018-05-04T03:53:07.296Z,99.90
2018-05-04T03:55:35.740Z,99.90
2018-05-04T03:58:15.887Z,99.90
2018-05-04T04:00:56.022Z,99.90
2018-05-04T04:06:25.939Z,99.90
2018-05-04T04:08:54.316Z,99.90
2018-05-04T04:11:23.404Z,99.90
2018-05-04T04:13:51.885Z,99.90
2018-05-04T04:16:20.475Z,99.90
2018-05-04T04:18:48.907Z,99.90
2018-05-04T04:21:17.396Z,99.90
2018-05-04T04:23:45.807Z,99.90
2018-05-04T04:26:14.224Z,99.90
2018-05-04T04:28:43.496Z,99.90
2018-05-04T04:31:11.840Z,99.90
2018-05-04T04:33:40.194Z,99.90
2018-05-04T04:36:08.713Z,99.90
2018-05-04T04:38:37.035Z,99.90
2018-05-04T04:41:05.446Z,99.90
2018-05-04T04:43:33.803Z,99.90
2018-05-04T04:46:03.509Z,99.90
2018-05-04T04:48:32.603Z,99.90
2018-05-04T04:51:01.824Z,99.90
2018-05-04T04:53:30.941Z,99.90
2018-05-04T04:55:59.345Z,99.90
2018-05-04T04:58:27.678Z,99.90
2018-05-04T05:00:56.020Z,99.90
2018-05-04T05:03:24.366Z,99.90
2018-05-04T05:05:52.706Z,99.90
2018-05-04T05:08:21.122Z,99.90
2018-05-04T05:10:49.447Z,99.90
2018-05-04T05:13:18.563Z,99.90
2018-05-04T05:15:46.882Z,99.90
2018-05-04T05:18:15.392Z,99.90
2018-05-04T05:20:43.801Z,99.90
2018-05-04T05:23:12.157Z,99.90
2018-05-04T05:25:40.600Z,99.90
2018-05-04T05:28:08.944Z,99.90
2018-05-04T05:30:37.344Z,99.90
2018-05-04T05:33:05.697Z,99.90
2018-05-04T05:35:34.183Z,99.90
2018-05-04T05:38:02.476Z,99.90
2018-05-04T05:40:30.823Z,99.90
2018-05-04T05:42:59.150Z,99.90
2018-05-04T05:45:27.503Z,99.90
2018-05-04T05:47:55.962Z,99.90
2018-05-04T05:50:25.768Z,99.90
2018-05-04T05:52:54.107Z,99.90
2018-05-04T05:55:22.446Z,99.90
2018-05-04T05:57:50.776Z,99.80
2018-05-04T06:00:19.113Z,99.70
2018-05-04T06:02:47.491Z,98.70
2018-05-04T06:05:15.827Z,98.50
2018-05-04T06:07:44.311Z,98.30
2018-05-04T06:10:12.736Z,98.00
2018-05-04T06:12:41.076Z,98.00
2018-05-04T06:15:10.251Z,98.00
2018-05-04T06:17:38.550Z,98.00
2018-05-04T06:20:06.914Z,97.60
2018-05-04T06:22:35.283Z,97.30
2018-05-04T06:25:04.304Z,97.30
2018-05-04T06:27:32.597Z,97.40
2018-05-04T06:30:02.317Z,97.30
2018-05-04T06:32:30.670Z,97.10
2018-05-04T06:34:59.791Z,96.80
2018-05-04T06:37:28.130Z,96.80
2018-05-04T06:39:56.485Z,96.80
2018-05-04T06:42:24.826Z,96.50
2018-05-04T06:44:53.246Z,96.20
2018-05-04T06:47:21.566Z,96.10
2018-05-04T06:49:49.903Z,96.30
2018-05-04T06:52:18.359Z,95.80
2018-05-04T06:54:46.827Z,95.60
2018-05-04T06:57:15.176Z,95.50
2018-05-04T06:59:43.526Z,95.40
2018-05-04T07:02:11.985Z,94.40
2018-05-04T07:04:40.330Z,94.40
2018-05-04T07:07:09.447Z,93.20
2018-05-04T07:09:37.829Z,93.20
2018-05-04T07:12:06.197Z,92.50
2018-05-04T07:14:34.545Z,92.30
2018-05-04T07:17:02.923Z,92.00
2018-05-04T07:19:31.260Z,91.80
2018-05-04T07:21:59.671Z,92.20
2018-05-04T07:24:27.953Z,91.70
2018-05-04T07:26:56.298Z,91.60
2018-05-04T07:29:24.646Z,91.20
2018-05-04T07:31:52.998Z,91.30
2018-05-04T07:34:22.114Z,90.60
2018-05-04T07:36:51.210Z,90.50
2018-05-04T07:39:19.578Z,90.50
2018-05-04T07:41:49.064Z,90.00
2018-05-04T07:44:17.520Z,90.00
2018-05-04T07:46:45.852Z,90.10
2018-05-04T07:49:15.164Z,88.10
2018-05-04T07:51:43.546Z,88.00
2018-05-04T07:54:11.887Z,88.30
2018-05-04T07:56:40.236Z,86.80
2018-05-04T07:59:08.596Z,86.20
2018-05-04T08:01:36.944Z,86.30
2018-05-04T08:04:05.523Z,84.70
2018-05-04T08:06:34.558Z,81.90
2018-05-04T08:09:02.934Z,82.00
2018-05-04T08:11:31.365Z,82.00
2018-05-04T08:13:59.718Z,82.90
2018-05-04T08:16:28.166Z,82.00
2018-05-04T08:18:56.500Z,82.50
2018-05-04T08:21:24.834Z,82.00
2018-05-04T08:23:53.171Z,81.90
2018-05-04T08:26:22.267Z,80.50
2018-05-04T08:28:51.396Z,79.50
2018-05-04T08:31:19.775Z,79.50
2018-05-04T08:33:48.168Z,78.90
2018-05-04T08:36:16.962Z,79.60
2018-05-04T08:38:45.285Z,77.70
2018-05-04T08:41:14.411Z,77.80
2018-05-04T08:43:42.801Z,77.80
2018-05-04T08:46:11.168Z,77.40
2018-05-04T08:48:39.507Z,77.00
2018-05-04T08:51:07.930Z,78.00
2018-05-04T08:53:36.243Z,79.60
2018-05-04T08:56:04.583Z,78.00
2018-05-04T08:58:32.930Z,79.10
2018-05-04T09:01:01.311Z,77.50
2018-05-04T09:03:29.641Z,76.20
2018-05-04T09:05:57.992Z,75.70
2018-05-04T09:08:26.341Z,76.20
2018-05-04T09:10:54.686Z,75.80
2018-05-04T09:13:23.047Z,75.50
2018-05-04T09:15:51.474Z,74.40
2018-05-04T09:18:19.808Z,76.20
2018-05-04T09:20:48.182Z,77.40
2018-05-04T09:23:16.527Z,75.20
2018-05-04T09:25:44.862Z,75.20
2018-05-04T09:28:13.231Z,73.00
2018-05-04T09:30:42.122Z,72.70
2018-05-04T09:33:11.202Z,71.50
2018-05-04T09:35:40.519Z,71.00
2018-05-04T09:38:08.852Z,70.50
2018-05-04T09:40:38.044Z,66.20
2018-05-04T09:43:06.387Z,67.20
2018-05-04T09:45:34.741Z,65.60
2018-05-04T09:48:03.143Z,65.90
2018-05-04T09:50:31.467Z,64.60
2018-05-04T09:53:00.597Z,65.70
2018-05-04T09:55:28.962Z,65.60
2018-05-04T09:57:57.355Z,63.80
2018-05-04T10:00:27.022Z,62.40
2018-05-04T10:02:55.972Z,64.10
2018-05-04T10:05:24.334Z,62.70
2018-05-04T10:07:52.677Z,66.40
2018-05-04T10:10:21.116Z,64.20
2018-05-04T10:12:49.558Z,62.90
2018-05-04T10:15:17.956Z,61.60
2018-05-04T10:17:46.342Z,60.90
2018-05-04T10:20:14.715Z,59.70
2018-05-04T10:22:43.105Z,59.40
2018-05-04T10:25:11.484Z,57.80
2018-05-04T10:27:39.951Z,59.60
2018-05-04T10:30:08.397Z,57.20
2018-05-04T10:32:36.828Z,56.70
2018-05-04T10:35:05.196Z,57.10
2018-05-04T10:37:33.589Z,56.90
2018-05-04T10:40:02.351Z,55.10
2018-05-04T10:42:31.466Z,55.10
2018-05-04T10:44:59.878Z,55.10
2018-05-04T10:47:28.227Z,59.00
2018-05-04T10:49:56.576Z,57.30
2018-05-04T10:52:24.979Z,55.50
2018-05-04T10:54:53.327Z,56.40
2018-05-04T10:57:22.443Z,57.20
2018-05-04T10:59:50.791Z,57.20
2018-05-04T11:02:20.000Z,59.60
2018-05-04T11:04:49.113Z,56.10
2018-05-04T11:07:17.495Z,56.10
2018-05-04T11:09:45.835Z,56.20
2018-05-04T11:12:14.266Z,56.70
2018-05-04T11:14:42.761Z,54.10
2018-05-04T11:17:11.242Z,53.20
2018-05-04T11:19:39.599Z,53.90
2018-05-04T11:22:07.951Z,56.60
2018-05-04T11:24:36.380Z,53.10
2018-05-04T11:27:04.721Z,52.50
2018-05-04T11:29:33.813Z,52.90
2018-05-04T11:32:02.925Z,51.50
2018-05-04T11:34:31.343Z,51.50
2018-05-04T11:36:59.811Z,50.90
2018-05-04T11:39:28.135Z,53.10
2018-05-04T11:41:57.356Z,52.80
2018-05-04T11:44:25.821Z,52.70
2018-05-04T11:46:54.242Z,54.10
2018-05-04T11:49:22.606Z,48.50
2018-05-04T11:51:50.965Z,50.40
2018-05-04T11:54:20.076Z,48.90
2018-05-04T11:56:49.290Z,50.50
2018-05-04T11:59:17.630Z,50.50
2018-05-04T12:01:46.893Z,49.20
2018-05-04T12:04:15.224Z,49.10
2018-05-04T12:06:43.574Z,50.10
2018-05-04T12:09:11.920Z,49.30
2018-05-04T12:11:40.314Z,47.90
2018-05-04T12:14:08.781Z,45.80
2018-05-04T12:16:37.155Z,46.60
2018-05-04T12:19:06.221Z,48.50
2018-05-04T12:21:34.644Z,48.40
2018-05-04T12:24:03.009Z,45.90
2018-05-04T12:26:31.440Z,45.00
2018-05-04T12:29:00.555Z,46.40
2018-05-04T12:31:28.932Z,46.40
2018-05-04T12:33:57.295Z,47.50
2018-05-04T12:36:26.398Z,47.10
2018-05-04T12:38:55.616Z,46.80
2018-05-04T12:41:23.962Z,46.90
2018-05-04T12:43:52.299Z,47.40
2018-05-04T12:46:20.670Z,45.40
2018-05-04T12:48:49.264Z,45.40
2018-05-04T12:51:18.331Z,46.30
2018-05-04T12:53:46.927Z,45.40
2018-05-04T12:56:15.202Z,45.70
2018-05-04T12:58:43.601Z,44.90
2018-05-04T13:01:11.980Z,44.40
2018-05-04T13:03:40.676Z,43.80
2018-05-04T13:06:09.047Z,44.30
2018-05-04T13:08:37.381Z,45.60
2018-05-04T13:11:06.518Z,43.70
2018-05-04T13:13:34.955Z,43.60
2018-05-04T13:16:04.085Z,44.10
2018-05-04T13:18:32.488Z,44.20
2018-05-04T13:21:00.863Z,44.50
2018-05-04T13:23:29.235Z,42.70
2018-05-04T13:25:57.636Z,42.50
2018-05-04T13:28:25.997Z,43.90
2018-05-04T13:30:54.358Z,42.80
2018-05-04T13:33:22.768Z,39.40
2018-05-04T13:35:51.133Z,40.30
2018-05-04T13:38:19.520Z,42.10
2018-05-04T13:40:47.893Z,40.00
2018-05-04T13:43:16.336Z,41.50
2018-05-04T13:45:44.683Z,42.20
2018-05-04T13:48:13.187Z,43.30
2018-05-04T13:50:41.861Z,42.80
2018-05-04T13:53:10.198Z,41.10
2018-05-04T13:55:38.568Z,40.90
2018-05-04T13:58:06.954Z,41.60
2018-05-04T14:00:35.306Z,39.90
2018-05-04T14:03:03.679Z,41.00
2018-05-04T14:05:32.023Z,42.00
2018-05-04T14:08:00.475Z,39.60
2018-05-04T14:10:28.839Z,39.00
2018-05-04T14:12:57.221Z,39.30
2018-05-04T14:15:25.612Z,39.40
2018-05-04T14:17:54.040Z,40.20
2018-05-04T14:20:22.473Z,40.50
2018-05-04T14:22:50.964Z,41.00
2018-05-04T14:25:19.324Z,40.50
2018-05-04T14:27:47.736Z,40.30
2018-05-04T14:30:16.113Z,40.10
2018-05-04T14:32:44.447Z,39.80
2018-05-04T14:35:12.811Z,39.60
2018-05-04T14:37:41.917Z,40.20
2018-05-04T14:40:10.277Z,40.20
2018-05-04T14:42:39.411Z,40.00
2018-05-04T14:45:07.910Z,40.00
2018-05-04T14:47:36.265Z,41.40
2018-05-04T14:50:04.620Z,40.50
2018-05-04T14:52:33.746Z,42.80
2018-05-04T14:55:02.143Z,42.80
2018-05-04T14:57:31.476Z,42.30
2018-05-04T14:59:59.910Z,41.70
2018-05-04T15:02:28.321Z,39.60
2018-05-04T15:04:56.638Z,41.70
2018-05-04T15:07:25.132Z,40.20
2018-05-04T15:09:53.755Z,39.30
2018-05-04T15:12:22.103Z,39.20
2018-05-04T15:14:50.499Z,40.30
2018-05-04T15:17:18.858Z,38.90
2018-05-04T15:19:47.198Z,38.20
2018-05-04T15:22:15.922Z,38.90
2018-05-04T15:24:45.044Z,39.60
2018-05-04T15:27:13.520Z,39.60
2018-05-04T15:29:41.887Z,39.60
2018-05-04T15:32:10.232Z,39.30
2018-05-04T15:34:38.651Z,40.10
2018-05-04T15:37:07.030Z,40.70
2018-05-04T15:39:35.382Z,41.10
2018-05-04T15:42:04.493Z,39.80
2018-05-04T15:44:32.834Z,39.80
2018-05-04T15:47:01.211Z,39.10
2018-05-04T15:49:29.823Z,39.50
2018-05-04T15:52:06.755Z,39.40
2018-05-04T15:54:35.398Z,39.70
2018-05-04T15:57:03.695Z,40.10
2018-05-04T15:59:32.088Z,40.10
2018-05-04T16:02:00.429Z,40.40
2018-05-04T16:04:29.464Z,39.60
2018-05-04T16:06:57.838Z,39.10
2018-05-04T16:09:26.183Z,38.80
2018-05-04T16:11:54.707Z,40.20
2018-05-04T16:14:23.064Z,39.50
2018-05-04T16:16:51.436Z,38.50
2018-05-04T16:19:19.795Z,37.60
2018-05-04T16:21:48.272Z,37.10
2018-05-04T16:24:17.412Z,37.00
2018-05-04T16:26:45.836Z,36.90
2018-05-04T16:29:14.257Z,36.90
2018-05-04T16:31:42.673Z,35.70
2018-05-04T16:34:11.019Z,35.40
2018-05-04T16:36:39.362Z,36.00
2018-05-04T16:39:07.884Z,35.20
2018-05-04T16:41:36.317Z,35.40
2018-05-04T16:44:04.636Z,36.40
2018-05-04T16:46:38.634Z,36.10
2018-05-04T16:49:13.580Z,36.30
2018-05-04T16:51:41.977Z,36.30
2018-05-04T16:54:10.470Z,36.20
2018-05-04T16:56:38.827Z,36.80
2018-05-04T16:59:07.387Z,36.50
2018-05-04T17:01:36.487Z,36.60
2018-05-04T17:04:04.820Z,36.70
2018-05-04T17:06:33.309Z,36.70
2018-05-04T17:09:01.775Z,37.10
2018-05-04T17:11:30.109Z,37.10
2018-05-04T17:13:58.501Z,36.80
2018-05-04T17:16:27.734Z,37.40
2018-05-04T17:18:56.427Z,38.70
2018-05-04T17:21:25.095Z,39.10
2018-05-04T17:23:53.435Z,40.10
2018-05-04T17:26:21.839Z,42.10
2018-05-04T17:28:50.290Z,43.90
2018-05-04T17:31:18.852Z,45.00
2018-05-04T17:33:47.241Z,45.90
2018-05-04T17:36:15.750Z,46.70
2018-05-04T17:38:44.141Z,48.40
2018-05-04T17:41:12.491Z,48.80
2018-05-04T17:43:42.282Z,50.10
2018-05-04T17:46:10.616Z,50.00
2018-05-04T17:48:38.988Z,50.10
2018-05-04T17:51:08.465Z,51.00
2018-05-04T17:53:37.050Z,51.70
2018-05-04T17:56:05.411Z,52.20
2018-05-04T17:58:33.768Z,51.70
2018-05-04T18:01:02.106Z,52.30
2018-05-04T18:03:30.464Z,52.60
2018-05-04T18:05:59.602Z,52.20
2018-05-04T18:08:27.959Z,52.20
2018-05-04T18:10:56.404Z,52.30
2018-05-04T18:13:24.892Z,52.70
2018-05-04T18:15:54.033Z,53.60
2018-05-04T18:18:22.529Z,53.80
2018-05-04T18:20:50.909Z,54.00
2018-05-04T18:23:19.270Z,54.50
2018-05-04T18:25:47.618Z,54.70
2018-05-04T18:28:16.080Z,55.30
2018-05-04T18:30:44.528Z,56.10
2018-05-04T18:33:12.865Z,56.40
2018-05-04T18:35:41.418Z,56.80
2018-05-04T18:38:09.762Z,57.40
2018-05-04T18:40:38.127Z,57.60
2018-05-04T18:43:06.491Z,57.90
2018-05-04T18:45:36.215Z,58.50
2018-05-04T18:48:04.612Z,58.40
2018-05-04T18:50:32.974Z,58.50
2018-05-04T18:53:01.327Z,59.00
2018-05-04T18:55:30.472Z,60.10
2018-05-04T18:57:58.878Z,59.70
2018-05-04T19:00:27.262Z,59.90
2018-05-04T19:03:01.509Z,60.00
2018-05-04T19:05:30.676Z,61.00
2018-05-04T19:07:59.064Z,61.00
2018-05-04T19:10:27.391Z,61.40
2018-05-04T19:12:55.738Z,61.70
2018-05-04T19:15:24.865Z,63.00
2018-05-04T19:17:53.216Z,63.00
2018-05-04T19:20:22.445Z,64.10
2018-05-04T19:22:50.807Z,64.10
2018-05-04T19:25:19.163Z,64.20
2018-05-04T19:27:47.511Z,64.20
2018-05-04T19:30:15.858Z,64.20
2018-05-04T19:32:44.243Z,64.40
2018-05-04T19:35:12.604Z,65.00
2018-05-04T19:37:41.721Z,65.00
2018-05-04T19:40:10.634Z,65.00
2018-05-04T19:42:39.025Z,65.20
2018-05-04T19:45:07.447Z,65.10
2018-05-04T19:47:35.969Z,64.90
2018-05-04T19:50:04.527Z,65.30
2018-05-04T19:52:32.958Z,65.70
2018-05-04T19:55:01.325Z,65.60
2018-05-04T19:57:29.706Z,65.90
2018-05-04T19:59:58.086Z,66.10
2018-05-04T20:02:26.443Z,66.40
2018-05-04T20:04:54.925Z,66.50
2018-05-04T20:07:23.283Z,66.90
2018-05-04T20:09:52.396Z,67.70
2018-05-04T20:12:20.754Z,67.10
2018-05-04T20:14:49.273Z,67.20
2018-05-04T20:17:17.610Z,67.40
2018-05-04T20:19:46.104Z,67.90
2018-05-04T20:22:14.463Z,67.80
2018-05-04T20:24:42.977Z,67.60
2018-05-04T20:27:11.380Z,67.60
2018-05-04T20:29:39.732Z,67.50
2018-05-04T20:32:08.115Z,68.00
2018-05-04T20:34:36.482Z,68.00
2018-05-04T20:37:05.056Z,68.10
2018-05-04T20:39:34.135Z,68.50
2018-05-04T20:42:02.506Z,68.50
2018-05-04T20:44:30.827Z,68.40
2018-05-04T20:46:59.179Z,69.50
2018-05-04T20:49:28.346Z,69.90
2018-05-04T20:51:56.871Z,69.90
2018-05-04T20:54:26.099Z,69.50
2018-05-04T20:56:55.376Z,70.00
2018-05-04T20:59:23.781Z,70.00
2018-05-04T21:01:52.145Z,70.30
2018-05-04T21:04:20.495Z,70.80
2018-05-04T21:06:50.642Z,71.00
2018-05-04T21:09:19.009Z,71.00
2018-05-04T21:11:47.354Z,71.90
2018-05-04T21:14:15.738Z,72.40
2018-05-04T21:16:44.141Z,72.90
2018-05-04T21:19:13.259Z,73.90
2018-05-04T21:21:42.464Z,74.20
2018-05-04T21:24:10.824Z,74.20
2018-05-04T21:26:39.291Z,74.60
2018-05-04T21:29:08.628Z,76.20
2018-05-04T21:31:36.942Z,75.40
2018-05-04T21:34:05.302Z,75.50
2018-05-04T21:36:33.676Z,75.40
2018-05-04T21:39:02.026Z,75.40
2018-05-04T21:41:30.466Z,75.40
2018-05-04T21:43:59.001Z,75.00
2018-05-04T21:46:27.455Z,74.90
2018-05-04T21:48:56.548Z,74.80
2018-05-04T21:51:25.107Z,74.80
2018-05-04T21:56:28.299Z,74.60
2018-05-04T21:58:56.664Z,74.50
2018-05-04T22:01:25.025Z,74.60
2018-05-04T22:03:54.010Z,74.20
2018-05-04T22:06:22.389Z,74.20
2018-05-04T22:08:50.807Z,74.30
2018-05-04T22:11:19.516Z,74.20
2018-05-04T22:13:47.968Z,74.40
2018-05-04T22:16:16.318Z,74.40
2018-05-04T22:18:45.945Z,74.40
2018-05-04T22:21:14.512Z,74.40
2018-05-04T22:23:42.845Z,74.70
2018-05-04T22:26:11.211Z,74.70
2018-05-04T22:28:39.551Z,74.50
2018-05-04T22:31:07.891Z,74.50
2018-05-04T22:33:36.481Z,74.50
2018-05-04T22:36:05.829Z,74.50
2018-05-04T22:38:34.378Z,74.50
2018-05-04T22:41:02.997Z,74.40
2018-05-04T22:43:31.915Z,74.40
2018-05-04T22:46:00.247Z,74.40
2018-05-04T22:48:28.656Z,74.60
2018-05-04T22:50:57.016Z,74.70
2018-05-04T22:53:25.635Z,75.10
2018-05-04T22:55:53.974Z,75.60
2018-05-04T22:58:22.375Z,75.20
2018-05-04T23:00:50.735Z,75.10
2018-05-04T23:03:19.171Z,75.30
2018-05-04T23:05:47.591Z,75.60
2018-05-04T23:08:15.972Z,75.70
2018-05-04T23:10:44.342Z,75.50
2018-05-04T23:13:12.894Z,75.60
2018-05-04T23:15:41.272Z,75.60
2018-05-04T23:18:09.816Z,75.70
2018-05-04T23:20:38.196Z,76.00
2018-05-04T23:23:06.807Z,76.20
2018-05-04T23:25:35.207Z,76.00
2018-05-04T23:28:03.593Z,76.00
2018-05-04T23:30:33.234Z,77.20
2018-05-04T23:33:01.835Z,76.30
2018-05-04T23:35:30.250Z,76.40
2018-05-04T23:37:58.895Z,77.10
2018-05-04T23:40:27.209Z,76.90
2018-05-04T23:42:55.670Z,76.80
2018-05-04T23:45:24.018Z,76.80
2018-05-04T23:47:52.414Z,76.80
2018-05-04T23:50:20.750Z,76.90
2018-05-04T23:52:49.890Z,77.30
2018-05-04T23:55:18.294Z,77.30
2018-05-04T23:57:46.644Z,77.60
